Terminal Aerodrome Forecast
Issued by NWS Sioux Falls, SD

Home | Current Version | Previous Version | Text Only | Print | Product List | Glossary On
Versions: 1 2 3 4 5 6 7 8 9 10 11 12 13 14 15
054
FTUS43 KFSD 260812 AAB
TAFFSD
TAF AMD
KFSD 260812Z 2608/2706 34015G22KT 6SM -DZ OVC009
      TEMPO 2608/2611 4SM -DZ BR OVC007
     FM261100 33014G21KT P6SM OVC008
     FM261500 33017G24KT P6SM OVC010
     FM261800 33016G24KT P6SM OVC020
     FM270100 34012KT P6SM BKN035=

USA.gov is the U.S. government's official web portal to all federal, state and local government web resources and services.